sensor_id;sensor_type;location;lat;lon;timestamp;temperature;humidity
37300;DHT22;23184;51.902;12.836;2022-12-18T00:01:23;-4.90;99.90
37300;DHT22;23184;51.902;12.836;2022-12-18T00:03:49;-4.80;99.90
37300;DHT22;23184;51.902;12.836;2022-12-18T00:06:15;-4.80;99.90
37300;DHT22;23184;51.902;12.836;2022-12-18T00:08:41;-4.80;99.90
37300;DHT22;23184;51.902;12.836;2022-12-18T00:11:08;-4.80;99.90
37300;DHT22;23184;51.902;12.836;2022-12-18T00:13:34;-4.70;99.90
37300;DHT22;23184;51.902;12.836;2022-12-18T00:16:03;-4.70;99.90
37300;DHT22;23184;51.902;12.836;2022-12-18T00:18:29;-4.70;99.90
37300;DHT22;23184;51.902;12.836;2022-12-18T00:20:58;-4.60;99.90
37300;DHT22;23184;51.902;12.836;2022-12-18T00:23:23;-4.60;99.90
37300;DHT22;23184;51.902;12.836;2022-12-18T00:25:48;-4.60;99.90
37300;DHT22;23184;51.902;12.836;2022-12-18T00:28:14;-4.50;99.90
37300;DHT22;23184;51.902;12.836;2022-12-18T00:30:39;-4.50;99.90
37300;DHT22;23184;51.902;12.836;2022-12-18T00:33:05;-4.50;99.90
37300;DHT22;23184;51.902;12.836;2022-12-18T00:35:31;-4.50;99.90
37300;DHT22;23184;51.902;12.836;2022-12-18T00:37:56;-4.40;99.90
37300;DHT22;23184;51.902;12.836;2022-12-18T00:40:22;-4.40;99.90
37300;DHT22;23184;51.902;12.836;2022-12-18T00:42:47;-4.40;99.90
37300;DHT22;23184;51.902;12.836;2022-12-18T00:45:26;-4.40;99.90
37300;DHT22;23184;51.902;12.836;2022-12-18T00:47:52;-4.40;99.90
37300;DHT22;23184;51.902;12.836;2022-12-18T00:50:17;-4.40;99.90
37300;DHT22;23184;51.902;12.836;2022-12-18T00:52:43;-4.40;99.90
37300;DHT22;23184;51.902;12.836;2022-12-18T00:55:09;-4.40;99.90
37300;DHT22;23184;51.902;12.836;2022-12-18T00:57:35;-4.40;99.90
37300;DHT22;23184;51.902;12.836;2022-12-18T01:00:00;-4.40;99.90
37300;DHT22;23184;51.902;12.836;2022-12-18T01:02:26;-4.40;99.90
37300;DHT22;23184;51.902;12.836;2022-12-18T01:04:51;-4.40;99.90
37300;DHT22;23184;51.902;12.836;2022-12-18T01:07:17;-4.40;99.90
37300;DHT22;23184;51.902;12.836;2022-12-18T01:09:42;-4.40;99.90
37300;DHT22;23184;51.902;12.836;2022-12-18T01:12:08;-4.30;99.90
37300;DHT22;23184;51.902;12.836;2022-12-18T01:14:33;-4.30;99.90
37300;DHT22;23184;51.902;12.836;2022-12-18T01:16:58;-4.40;99.90
37300;DHT22;23184;51.902;12.836;2022-12-18T01:19:24;-4.40;99.90
37300;DHT22;23184;51.902;12.836;2022-12-18T01:21:49;-4.40;99.90
37300;DHT22;23184;51.902;12.836;2022-12-18T01:24:15;-4.40;99.90
37300;DHT22;23184;51.902;12.836;2022-12-18T01:26:40;-4.40;99.90
37300;DHT22;23184;51.902;12.836;2022-12-18T01:29:06;-4.40;99.90
37300;DHT22;23184;51.902;12.836;2022-12-18T01:31:33;-4.40;99.90
37300;DHT22;23184;51.902;12.836;2022-12-18T01:34:02;-4.40;99.90
37300;DHT22;23184;51.902;12.836;2022-12-18T01:36:29;-4.50;99.90
37300;DHT22;23184;51.902;12.836;2022-12-18T01:38:54;-4.50;99.90
37300;DHT22;23184;51.902;12.836;2022-12-18T01:41:22;-4.50;99.90
37300;DHT22;23184;51.902;12.836;2022-12-18T01:43:50;-4.50;99.90
37300;DHT22;23184;51.902;12.836;2022-12-18T01:46:17;-4.50;99.90
37300;DHT22;23184;51.902;12.836;2022-12-18T01:48:43;-4.50;99.90
37300;DHT22;23184;51.902;12.836;2022-12-18T01:51:09;-4.50;99.90
37300;DHT22;23184;51.902;12.836;2022-12-18T01:53:35;-4.50;99.90
37300;DHT22;23184;51.902;12.836;2022-12-18T01:56:01;-4.50;99.90
37300;DHT22;23184;51.902;12.836;2022-12-18T01:58:32;-4.50;99.90
37300;DHT22;23184;51.902;12.836;2022-12-18T02:01:00;-4.50;99.90
37300;DHT22;23184;51.902;12.836;2022-12-18T02:03:26;-4.60;99.90
37300;DHT22;23184;51.902;12.836;2022-12-18T02:08:26;-4.60;99.90
37300;DHT22;23184;51.902;12.836;2022-12-18T02:10:57;-4.60;99.90
37300;DHT22;23184;51.902;12.836;2022-12-18T02:18:41;-4.70;99.90
37300;DHT22;23184;51.902;12.836;2022-12-18T02:23:47;-4.70;99.90
37300;DHT22;23184;51.902;12.836;2022-12-18T02:26:29;-4.70;99.90
37300;DHT22;23184;51.902;12.836;2022-12-18T02:28:56;-4.70;99.90
37300;DHT22;23184;51.902;12.836;2022-12-18T02:31:26;-4.80;99.90
37300;DHT22;23184;51.902;12.836;2022-12-18T02:33:53;-4.80;99.90
37300;DHT22;23184;51.902;12.836;2022-12-18T02:36:21;-4.80;99.90
37300;DHT22;23184;51.902;12.836;2022-12-18T02:38:47;-4.80;99.90
37300;DHT22;23184;51.902;12.836;2022-12-18T02:41:13;-4.80;99.90
37300;DHT22;23184;51.902;12.836;2022-12-18T02:43:39;-4.80;99.90
37300;DHT22;23184;51.902;12.836;2022-12-18T02:48:49;-4.90;99.90
37300;DHT22;23184;51.902;12.836;2022-12-18T02:51:17;-4.90;99.90
37300;DHT22;23184;51.902;12.836;2022-12-18T02:56:38;-4.90;99.90
37300;DHT22;23184;51.902;12.836;2022-12-18T02:59:07;-4.90;99.90
37300;DHT22;23184;51.902;12.836;2022-12-18T03:02:17;-4.90;99.90
37300;DHT22;23184;51.902;12.836;2022-12-18T03:06:49;-4.90;99.90
37300;DHT22;23184;51.902;12.836;2022-12-18T03:09:26;-5.00;99.90
37300;DHT22;23184;51.902;12.836;2022-12-18T03:11:54;-5.00;99.90
37300;DHT22;23184;51.902;12.836;2022-12-18T03:14:38;-5.00;99.90
37300;DHT22;23184;51.902;12.836;2022-12-18T03:17:07;-5.00;99.90
37300;DHT22;23184;51.902;12.836;2022-12-18T03:19:37;-5.00;99.90
37300;DHT22;23184;51.902;12.836;2022-12-18T03:22:04;-5.00;99.90
37300;DHT22;23184;51.902;12.836;2022-12-18T03:24:31;-4.90;99.90
37300;DHT22;23184;51.902;12.836;2022-12-18T03:27:00;-4.90;99.90
37300;DHT22;23184;51.902;12.836;2022-12-18T03:31:56;-4.90;99.90
37300;DHT22;23184;51.902;12.836;2022-12-18T03:34:26;-5.00;99.90
37300;DHT22;23184;51.902;12.836;2022-12-18T03:36:52;-4.90;99.90
37300;DHT22;23184;51.902;12.836;2022-12-18T03:39:18;-4.90;99.90
37300;DHT22;23184;51.902;12.836;2022-12-18T03:41:48;-5.00;99.90
37300;DHT22;23184;51.902;12.836;2022-12-18T03:47:05;-4.90;99.90
37300;DHT22;23184;51.902;12.836;2022-12-18T03:49:36;-4.90;99.90
37300;DHT22;23184;51.902;12.836;2022-12-18T03:52:38;-4.90;99.90
37300;DHT22;23184;51.902;12.836;2022-12-18T03:54:55;-4.90;99.90
37300;DHT22;23184;51.902;12.836;2022-12-18T03:57:22;-4.90;99.90
37300;DHT22;23184;51.902;12.836;2022-12-18T03:59:51;-4.90;99.90
37300;DHT22;23184;51.902;12.836;2022-12-18T04:02:18;-4.80;99.90
37300;DHT22;23184;51.902;12.836;2022-12-18T04:04:45;-4.90;99.90
37300;DHT22;23184;51.902;12.836;2022-12-18T04:07:12;-4.90;99.90
37300;DHT22;23184;51.902;12.836;2022-12-18T04:09:38;-4.90;99.90
37300;DHT22;23184;51.902;12.836;2022-12-18T04:12:05;-4.90;99.90
37300;DHT22;23184;51.902;12.836;2022-12-18T04:14:31;-4.90;99.90
37300;DHT22;23184;51.902;12.836;2022-12-18T04:17:01;-5.00;99.90
37300;DHT22;23184;51.902;12.836;2022-12-18T04:19:26;-5.00;99.90
37300;DHT22;23184;51.902;12.836;2022-12-18T04:21:52;-5.00;99.90
37300;DHT22;23184;51.902;12.836;2022-12-18T04:24:17;-5.00;99.90
37300;DHT22;23184;51.902;12.836;2022-12-18T04:26:43;-4.90;99.90
37300;DHT22;23184;51.902;12.836;2022-12-18T04:29:08;-5.00;99.90
37300;DHT22;23184;51.902;12.836;2022-12-18T04:31:33;-4.90;99.90
37300;DHT22;23184;51.902;12.836;2022-12-18T04:33:59;-4.90;99.90
37300;DHT22;23184;51.902;12.836;2022-12-18T04:36:24;-4.90;99.90
37300;DHT22;23184;51.902;12.836;2022-12-18T04:38:50;-5.00;99.90
37300;DHT22;23184;51.902;12.836;2022-12-18T04:41:15;-5.00;99.90
37300;DHT22;23184;51.902;12.836;2022-12-18T04:43:41;-5.00;99.90
37300;DHT22;23184;51.902;12.836;2022-12-18T04:46:07;-5.00;99.90
37300;DHT22;23184;51.902;12.836;2022-12-18T04:48:33;-5.00;99.90
37300;DHT22;23184;51.902;12.836;2022-12-18T04:50:58;-5.10;99.90
37300;DHT22;23184;51.902;12.836;2022-12-18T04:53:24;-5.00;99.90
37300;DHT22;23184;51.902;12.836;2022-12-18T04:55:49;-5.00;99.90
37300;DHT22;23184;51.902;12.836;2022-12-18T04:58:15;-5.00;99.90
37300;DHT22;23184;51.902;12.836;2022-12-18T05:00:40;-5.00;99.90
37300;DHT22;23184;51.902;12.836;2022-12-18T05:03:06;-5.00;99.90
37300;DHT22;23184;51.902;12.836;2022-12-18T05:05:31;-5.00;99.90
37300;DHT22;23184;51.902;12.836;2022-12-18T05:07:59;-5.00;99.90
37300;DHT22;23184;51.902;12.836;2022-12-18T05:10:24;-5.00;99.90
37300;DHT22;23184;51.902;12.836;2022-12-18T05:12:50;-5.00;99.90
37300;DHT22;23184;51.902;12.836;2022-12-18T05:15:26;-4.90;99.90
37300;DHT22;23184;51.902;12.836;2022-12-18T05:17:52;-4.90;99.90
37300;DHT22;23184;51.902;12.836;2022-12-18T05:20:17;-4.90;99.90
37300;DHT22;23184;51.902;12.836;2022-12-18T05:22:43;-4.90;99.90
37300;DHT22;23184;51.902;12.836;2022-12-18T05:25:09;-4.90;99.90
37300;DHT22;23184;51.902;12.836;2022-12-18T05:27:34;-4.90;99.90
37300;DHT22;23184;51.902;12.836;2022-12-18T05:29:59;-4.90;99.90
37300;DHT22;23184;51.902;12.836;2022-12-18T05:32:25;-4.90;99.90
37300;DHT22;23184;51.902;12.836;2022-12-18T05:34:50;-4.90;99.90
37300;DHT22;23184;51.902;12.836;2022-12-18T05:37:16;-5.00;99.90
37300;DHT22;23184;51.902;12.836;2022-12-18T05:39:42;-5.00;99.90
37300;DHT22;23184;51.902;12.836;2022-12-18T05:42:07;-5.00;99.90
37300;DHT22;23184;51.902;12.836;2022-12-18T05:44:33;-5.00;99.90
37300;DHT22;23184;51.902;12.836;2022-12-18T05:46:59;-5.00;99.90
37300;DHT22;23184;51.902;12.836;2022-12-18T05:49:24;-4.90;99.90
37300;DHT22;23184;51.902;12.836;2022-12-18T05:51:50;-4.90;99.90
37300;DHT22;23184;51.902;12.836;2022-12-18T05:54:15;-4.90;99.90
37300;DHT22;23184;51.902;12.836;2022-12-18T05:56:41;-4.90;99.90
37300;DHT22;23184;51.902;12.836;2022-12-18T05:59:06;-5.00;99.90
37300;DHT22;23184;51.902;12.836;2022-12-18T06:01:32;-5.00;99.90
37300;DHT22;23184;51.902;12.836;2022-12-18T06:03:57;-5.10;99.90
37300;DHT22;23184;51.902;12.836;2022-12-18T06:06:24;-5.10;99.90
37300;DHT22;23184;51.902;12.836;2022-12-18T06:08:49;-5.20;99.90
37300;DHT22;23184;51.902;12.836;2022-12-18T06:11:19;-5.20;99.90
37300;DHT22;23184;51.902;12.836;2022-12-18T06:13:45;-5.20;99.90
37300;DHT22;23184;51.902;12.836;2022-12-18T06:16:11;-5.20;99.90
37300;DHT22;23184;51.902;12.836;2022-12-18T06:18:37;-5.20;99.90
37300;DHT22;23184;51.902;12.836;2022-12-18T06:21:02;-5.30;99.90
37300;DHT22;23184;51.902;12.836;2022-12-18T06:23:28;-5.30;99.90
37300;DHT22;23184;51.902;12.836;2022-12-18T06:25:53;-5.30;99.90
37300;DHT22;23184;51.902;12.836;2022-12-18T06:28:19;-5.30;99.90
37300;DHT22;23184;51.902;12.836;2022-12-18T06:30:48;-5.40;99.90
37300;DHT22;23184;51.902;12.836;2022-12-18T06:33:14;-5.50;99.90
37300;DHT22;23184;51.902;12.836;2022-12-18T06:35:39;-5.50;99.90
37300;DHT22;23184;51.902;12.836;2022-12-18T06:38:05;-5.50;99.90
37300;DHT22;23184;51.902;12.836;2022-12-18T06:40:30;-5.60;99.90
37300;DHT22;23184;51.902;12.836;2022-12-18T06:42:56;-5.60;99.90
37300;DHT22;23184;51.902;12.836;2022-12-18T06:45:21;-5.70;99.90
37300;DHT22;23184;51.902;12.836;2022-12-18T06:47:47;-5.70;99.90
37300;DHT22;23184;51.902;12.836;2022-12-18T06:50:12;-5.80;99.90
37300;DHT22;23184;51.902;12.836;2022-12-18T06:52:38;-5.70;99.90
37300;DHT22;23184;51.902;12.836;2022-12-18T06:55:06;-5.70;99.90
37300;DHT22;23184;51.902;12.836;2022-12-18T06:57:34;-5.80;99.90
37300;DHT22;23184;51.902;12.836;2022-12-18T07:00:00;-5.80;99.90
37300;DHT22;23184;51.902;12.836;2022-12-18T07:02:25;-5.80;99.90
37300;DHT22;23184;51.902;12.836;2022-12-18T07:04:51;-5.90;99.90
37300;DHT22;23184;51.902;12.836;2022-12-18T07:07:16;-5.90;99.90
37300;DHT22;23184;51.902;12.836;2022-12-18T07:09:41;-5.90;99.90
37300;DHT22;23184;51.902;12.836;2022-12-18T07:12:07;-5.90;99.90
37300;DHT22;23184;51.902;12.836;2022-12-18T07:14:33;-6.00;99.90
37300;DHT22;23184;51.902;12.836;2022-12-18T07:16:58;-6.00;99.90
37300;DHT22;23184;51.902;12.836;2022-12-18T07:19:24;-6.00;99.90
37300;DHT22;23184;51.902;12.836;2022-12-18T07:21:50;-6.10;99.90
37300;DHT22;23184;51.902;12.836;2022-12-18T07:24:15;-6.00;99.90
37300;DHT22;23184;51.902;12.836;2022-12-18T07:26:40;-6.10;99.90
37300;DHT22;23184;51.902;12.836;2022-12-18T07:29:06;-6.10;99.90
37300;DHT22;23184;51.902;12.836;2022-12-18T07:31:31;-6.20;99.90
37300;DHT22;23184;51.902;12.836;2022-12-18T07:33:57;-6.20;99.90
37300;DHT22;23184;51.902;12.836;2022-12-18T07:36:22;-6.30;99.90
37300;DHT22;23184;51.902;12.836;2022-12-18T07:38:48;-6.40;99.90
37300;DHT22;23184;51.902;12.836;2022-12-18T07:41:14;-6.40;99.90
37300;DHT22;23184;51.902;12.836;2022-12-18T07:43:40;-6.40;99.90
37300;DHT22;23184;51.902;12.836;2022-12-18T07:46:05;-6.50;99.90
37300;DHT22;23184;51.902;12.836;2022-12-18T07:48:31;-6.60;99.90
37300;DHT22;23184;51.902;12.836;2022-12-18T07:51:00;-6.60;99.90
37300;DHT22;23184;51.902;12.836;2022-12-18T07:53:26;-6.60;99.90
37300;DHT22;23184;51.902;12.836;2022-12-18T07:55:58;-6.60;99.90
37300;DHT22;23184;51.902;12.836;2022-12-18T07:58:24;-6.60;99.90
37300;DHT22;23184;51.902;12.836;2022-12-18T08:00:50;-6.60;99.90
37300;DHT22;23184;51.902;12.836;2022-12-18T08:03:15;-6.60;99.90
37300;DHT22;23184;51.902;12.836;2022-12-18T08:05:41;-6.50;99.90
37300;DHT22;23184;51.902;12.836;2022-12-18T08:08:06;-6.50;99.90
37300;DHT22;23184;51.902;12.836;2022-12-18T08:10:32;-6.50;99.90
37300;DHT22;23184;51.902;12.836;2022-12-18T08:12:57;-6.50;99.90
37300;DHT22;23184;51.902;12.836;2022-12-18T08:15:22;-6.40;99.90
37300;DHT22;23184;51.902;12.836;2022-12-18T08:17:48;-6.40;99.90
37300;DHT22;23184;51.902;12.836;2022-12-18T08:20:13;-6.40;99.90
37300;DHT22;23184;51.902;12.836;2022-12-18T08:22:41;-6.40;99.90
37300;DHT22;23184;51.902;12.836;2022-12-18T08:25:06;-6.40;99.90
37300;DHT22;23184;51.902;12.836;2022-12-18T08:27:32;-6.30;99.90
37300;DHT22;23184;51.902;12.836;2022-12-18T08:29:57;-6.30;99.90
37300;DHT22;23184;51.902;12.836;2022-12-18T08:32:23;-6.20;99.90
37300;DHT22;23184;51.902;12.836;2022-12-18T08:34:49;-6.20;99.90
37300;DHT22;23184;51.902;12.836;2022-12-18T08:37:14;-6.10;99.90
37300;DHT22;23184;51.902;12.836;2022-12-18T08:39:40;-6.00;99.90
37300;DHT22;23184;51.902;12.836;2022-12-18T08:42:05;-6.00;99.90
37300;DHT22;23184;51.902;12.836;2022-12-18T08:44:50;-5.90;99.90
37300;DHT22;23184;51.902;12.836;2022-12-18T08:47:15;-6.00;99.90
37300;DHT22;23184;51.902;12.836;2022-12-18T08:49:40;-5.90;99.90
37300;DHT22;23184;51.902;12.836;2022-12-18T08:52:06;-5.80;99.90
37300;DHT22;23184;51.902;12.836;2022-12-18T08:54:31;-5.80;99.90
37300;DHT22;23184;51.902;12.836;2022-12-18T08:56:57;-5.90;99.90
37300;DHT22;23184;51.902;12.836;2022-12-18T08:59:22;-5.90;99.90
37300;DHT22;23184;51.902;12.836;2022-12-18T09:01:48;-5.90;99.90
37300;DHT22;23184;51.902;12.836;2022-12-18T09:04:14;-5.90;99.90
37300;DHT22;23184;51.902;12.836;2022-12-18T09:06:39;-5.80;99.90
37300;DHT22;23184;51.902;12.836;2022-12-18T09:09:05;-5.70;99.90
37300;DHT22;23184;51.902;12.836;2022-12-18T09:11:31;-5.70;99.90
37300;DHT22;23184;51.902;12.836;2022-12-18T09:13:57;-5.60;99.90
37300;DHT22;23184;51.902;12.836;2022-12-18T09:16:23;-5.60;99.90
37300;DHT22;23184;51.902;12.836;2022-12-18T09:18:49;-5.50;99.90
37300;DHT22;23184;51.902;12.836;2022-12-18T09:21:19;-5.50;99.90
37300;DHT22;23184;51.902;12.836;2022-12-18T09:23:52;-5.40;99.90
37300;DHT22;23184;51.902;12.836;2022-12-18T09:26:18;-5.40;99.90
37300;DHT22;23184;51.902;12.836;2022-12-18T09:28:44;-5.30;99.90
37300;DHT22;23184;51.902;12.836;2022-12-18T09:31:11;-5.30;99.90
37300;DHT22;23184;51.902;12.836;2022-12-18T09:33:36;-5.20;99.90
37300;DHT22;23184;51.902;12.836;2022-12-18T09:36:03;-5.10;99.90
37300;DHT22;23184;51.902;12.836;2022-12-18T09:38:29;-5.10;99.90
37300;DHT22;23184;51.902;12.836;2022-12-18T09:40:57;-5.10;99.90
37300;DHT22;23184;51.902;12.836;2022-12-18T09:43:35;-5.10;99.90
37300;DHT22;23184;51.902;12.836;2022-12-18T09:46:03;-5.00;99.90
37300;DHT22;23184;51.902;12.836;2022-12-18T09:48:42;-4.90;99.90
37300;DHT22;23184;51.902;12.836;2022-12-18T09:51:17;-4.70;99.90
37300;DHT22;23184;51.902;12.836;2022-12-18T09:53:44;-4.60;99.90
37300;DHT22;23184;51.902;12.836;2022-12-18T09:56:12;-4.60;99.90
37300;DHT22;23184;51.902;12.836;2022-12-18T09:58:41;-4.50;99.90
37300;DHT22;23184;51.902;12.836;2022-12-18T10:01:16;-4.50;99.90
37300;DHT22;23184;51.902;12.836;2022-12-18T10:03:43;-4.50;99.90
37300;DHT22;23184;51.902;12.836;2022-12-18T18:18:08;-5.10;99.90
37300;DHT22;23184;51.902;12.836;2022-12-18T18:20:38;-5.10;99.90
37300;DHT22;23184;51.902;12.836;2022-12-18T18:23:04;-5.10;99.90
37300;DHT22;23184;51.902;12.836;2022-12-18T18:25:30;-5.00;99.90
37300;DHT22;23184;51.902;12.836;2022-12-18T18:27:59;-5.00;99.90
37300;DHT22;23184;51.902;12.836;2022-12-18T18:30:25;-5.00;99.90
37300;DHT22;23184;51.902;12.836;2022-12-18T18:32:50;-5.00;99.90
37300;DHT22;23184;51.902;12.836;2022-12-18T18:35:16;-4.90;99.90
37300;DHT22;23184;51.902;12.836;2022-12-18T18:37:42;-4.90;99.90
37300;DHT22;23184;51.902;12.836;2022-12-18T18:40:08;-4.90;99.90
37300;DHT22;23184;51.902;12.836;2022-12-18T18:42:33;-4.90;99.90
37300;DHT22;23184;51.902;12.836;2022-12-18T18:44:59;-4.90;99.90
37300;DHT22;23184;51.902;12.836;2022-12-18T18:47:24;-4.90;99.90
37300;DHT22;23184;51.902;12.836;2022-12-18T18:49:50;-4.90;99.90
37300;DHT22;23184;51.902;12.836;2022-12-18T18:52:16;-4.90;99.90
37300;DHT22;23184;51.902;12.836;2022-12-18T18:54:41;-4.90;99.90
37300;DHT22;23184;51.902;12.836;2022-12-18T18:57:07;-4.90;99.90
37300;DHT22;23184;51.902;12.836;2022-12-18T18:59:35;-4.90;99.90
37300;DHT22;23184;51.902;12.836;2022-12-18T19:02:00;-4.90;99.90
37300;DHT22;23184;51.902;12.836;2022-12-18T19:04:26;-4.90;99.90
37300;DHT22;23184;51.902;12.836;2022-12-18T19:06:52;-4.90;99.90
37300;DHT22;23184;51.902;12.836;2022-12-18T19:09:18;-4.90;99.90
37300;DHT22;23184;51.902;12.836;2022-12-18T19:11:43;-4.90;99.90
37300;DHT22;23184;51.902;12.836;2022-12-18T19:14:28;-4.90;99.90
37300;DHT22;23184;51.902;12.836;2022-12-18T19:16:53;-4.90;99.90
37300;DHT22;23184;51.902;12.836;2022-12-18T19:19:19;-4.90;99.90
37300;DHT22;23184;51.902;12.836;2022-12-18T19:21:46;-4.90;99.90
37300;DHT22;23184;51.902;12.836;2022-12-18T19:24:11;-4.90;99.90
37300;DHT22;23184;51.902;12.836;2022-12-18T19:26:37;-4.80;99.90
37300;DHT22;23184;51.902;12.836;2022-12-18T19:29:05;-4.80;99.90
37300;DHT22;23184;51.902;12.836;2022-12-18T19:31:31;-4.80;99.90
37300;DHT22;23184;51.902;12.836;2022-12-18T19:33:58;-4.80;99.90
37300;DHT22;23184;51.902;12.836;2022-12-18T19:36:26;-4.80;99.90
37300;DHT22;23184;51.902;12.836;2022-12-18T19:38:54;-4.80;99.90
37300;DHT22;23184;51.902;12.836;2022-12-18T19:41:20;-4.80;99.90
37300;DHT22;23184;51.902;12.836;2022-12-18T19:43:47;-4.80;99.90
37300;DHT22;23184;51.902;12.836;2022-12-18T19:46:14;-4.80;99.90
37300;DHT22;23184;51.902;12.836;2022-12-18T19:48:41;-4.80;99.90
37300;DHT22;23184;51.902;12.836;2022-12-18T19:51:08;-4.80;99.90
37300;DHT22;23184;51.902;12.836;2022-12-18T19:53:34;-4.80;99.90
37300;DHT22;23184;51.902;12.836;2022-12-18T19:56:21;-4.80;99.90
37300;DHT22;23184;51.902;12.836;2022-12-18T19:58:47;-4.80;99.90
37300;DHT22;23184;51.902;12.836;2022-12-18T20:01:15;-4.80;99.90
37300;DHT22;23184;51.902;12.836;2022-12-18T20:03:41;-4.80;99.90
37300;DHT22;23184;51.902;12.836;2022-12-18T20:08:55;-4.80;99.90
37300;DHT22;23184;51.902;12.836;2022-12-18T20:11:22;-4.80;99.90
37300;DHT22;23184;51.902;12.836;2022-12-18T20:13:47;-4.80;99.90
37300;DHT22;23184;51.902;12.836;2022-12-18T20:16:13;-4.70;99.90
37300;DHT22;23184;51.902;12.836;2022-12-18T20:18:38;-4.70;99.90
37300;DHT22;23184;51.902;12.836;2022-12-18T20:21:04;-4.70;99.90
37300;DHT22;23184;51.902;12.836;2022-12-18T20:23:30;-4.70;99.90
37300;DHT22;23184;51.902;12.836;2022-12-18T20:25:55;-4.70;99.90
37300;DHT22;23184;51.902;12.836;2022-12-18T20:28:23;-4.70;99.90
37300;DHT22;23184;51.902;12.836;2022-12-18T20:30:49;-4.70;99.90
37300;DHT22;23184;51.902;12.836;2022-12-18T20:33:15;-4.70;99.90
37300;DHT22;23184;51.902;12.836;2022-12-18T20:35:41;-4.60;99.90
37300;DHT22;23184;51.902;12.836;2022-12-18T20:38:06;-4.60;99.90
37300;DHT22;23184;51.902;12.836;2022-12-18T20:40:33;-4.60;99.90
37300;DHT22;23184;51.902;12.836;2022-12-18T20:42:59;-4.60;99.90
37300;DHT22;23184;51.902;12.836;2022-12-18T20:45:26;-4.50;99.90
37300;DHT22;23184;51.902;12.836;2022-12-18T20:47:53;-4.50;99.90
37300;DHT22;23184;51.902;12.836;2022-12-18T20:50:20;-4.50;99.90
37300;DHT22;23184;51.902;12.836;2022-12-18T20:52:46;-4.50;99.90
37300;DHT22;23184;51.902;12.836;2022-12-18T20:55:12;-4.50;99.90
37300;DHT22;23184;51.902;12.836;2022-12-18T20:57:38;-4.50;99.90
37300;DHT22;23184;51.902;12.836;2022-12-18T21:00:05;-4.40;99.90
37300;DHT22;23184;51.902;12.836;2022-12-18T21:02:31;-4.40;99.90
37300;DHT22;23184;51.902;12.836;2022-12-18T21:04:57;-4.40;99.90
37300;DHT22;23184;51.902;12.836;2022-12-18T21:07:22;-4.40;99.90
37300;DHT22;23184;51.902;12.836;2022-12-18T21:09:48;-4.40;99.90
37300;DHT22;23184;51.902;12.836;2022-12-18T21:12:14;-4.40;99.90
37300;DHT22;23184;51.902;12.836;2022-12-18T21:15:07;-4.40;99.90
37300;DHT22;23184;51.902;12.836;2022-12-18T21:17:33;-4.40;99.90
37300;DHT22;23184;51.902;12.836;2022-12-18T21:19:59;-4.40;99.90
37300;DHT22;23184;51.902;12.836;2022-12-18T21:22:25;-4.40;99.90
37300;DHT22;23184;51.902;12.836;2022-12-18T21:24:51;-4.40;99.90
37300;DHT22;23184;51.902;12.836;2022-12-18T21:27:17;-4.40;99.90
37300;DHT22;23184;51.902;12.836;2022-12-18T21:29:43;-4.40;99.90
37300;DHT22;23184;51.902;12.836;2022-12-18T21:32:09;-4.40;99.90
37300;DHT22;23184;51.902;12.836;2022-12-18T21:34:35;-4.40;99.90
37300;DHT22;23184;51.902;12.836;2022-12-18T21:37:01;-4.40;99.90
37300;DHT22;23184;51.902;12.836;2022-12-18T21:39:28;-4.40;99.90
37300;DHT22;23184;51.902;12.836;2022-12-18T21:41:53;-4.40;99.90
37300;DHT22;23184;51.902;12.836;2022-12-18T21:44:58;-4.40;99.90
37300;DHT22;23184;51.902;12.836;2022-12-18T21:47:23;-4.40;99.90
37300;DHT22;23184;51.902;12.836;2022-12-18T21:49:52;-4.40;99.90
37300;DHT22;23184;51.902;12.836;2022-12-18T21:52:18;-4.40;99.90
37300;DHT22;23184;51.902;12.836;2022-12-18T21:54:44;-4.40;99.90
37300;DHT22;23184;51.902;12.836;2022-12-18T21:57:10;-4.40;99.90
37300;DHT22;23184;51.902;12.836;2022-12-18T21:59:39;-4.40;99.90
37300;DHT22;23184;51.902;12.836;2022-12-18T22:02:10;-4.40;99.90
37300;DHT22;23184;51.902;12.836;2022-12-18T22:04:36;-4.40;99.90
37300;DHT22;23184;51.902;12.836;2022-12-18T22:07:03;-4.30;99.90
37300;DHT22;23184;51.902;12.836;2022-12-18T22:09:30;-4.30;99.90
37300;DHT22;23184;51.902;12.836;2022-12-18T22:11:56;-4.30;99.90
37300;DHT22;23184;51.902;12.836;2022-12-18T22:14:22;-4.30;99.90
37300;DHT22;23184;51.902;12.836;2022-12-18T22:16:48;-4.30;99.90
37300;DHT22;23184;51.902;12.836;2022-12-18T22:19:14;-4.30;99.90
37300;DHT22;23184;51.902;12.836;2022-12-18T22:21:42;-4.30;99.90
37300;DHT22;23184;51.902;12.836;2022-12-18T22:24:12;-4.30;99.90
37300;DHT22;23184;51.902;12.836;2022-12-18T22:26:38;-4.20;99.90
37300;DHT22;23184;51.902;12.836;2022-12-18T22:29:04;-4.20;99.90
37300;DHT22;23184;51.902;12.836;2022-12-18T22:31:49;-4.20;99.90
37300;DHT22;23184;51.902;12.836;2022-12-18T22:34:15;-4.20;99.90
37300;DHT22;23184;51.902;12.836;2022-12-18T22:36:45;-4.20;99.90
37300;DHT22;23184;51.902;12.836;2022-12-18T22:39:14;-4.20;99.90
37300;DHT22;23184;51.902;12.836;2022-12-18T22:41:40;-4.20;99.90
37300;DHT22;23184;51.902;12.836;2022-12-18T22:44:05;-4.20;99.90
37300;DHT22;23184;51.902;12.836;2022-12-18T22:46:34;-4.20;99.90
37300;DHT22;23184;51.902;12.836;2022-12-18T22:49:00;-4.20;99.90
37300;DHT22;23184;51.902;12.836;2022-12-18T22:51:25;-4.20;99.90
37300;DHT22;23184;51.902;12.836;2022-12-18T22:53:51;-4.20;99.90
37300;DHT22;23184;51.902;12.836;2022-12-18T22:56:17;-4.20;99.90
37300;DHT22;23184;51.902;12.836;2022-12-18T22:58:42;-4.20;99.90
37300;DHT22;23184;51.902;12.836;2022-12-18T23:01:22;-4.20;99.90
37300;DHT22;23184;51.902;12.836;2022-12-18T23:03:48;-4.20;99.90
37300;DHT22;23184;51.902;12.836;2022-12-18T23:06:14;-4.20;99.90
37300;DHT22;23184;51.902;12.836;2022-12-18T23:08:40;-4.20;99.90
37300;DHT22;23184;51.902;12.836;2022-12-18T23:11:06;-4.20;99.90
37300;DHT22;23184;51.902;12.836;2022-12-18T23:13:32;-4.20;99.90
37300;DHT22;23184;51.902;12.836;2022-12-18T23:15:58;-4.20;99.90
37300;DHT22;23184;51.902;12.836;2022-12-18T23:18:24;-4.20;99.90
37300;DHT22;23184;51.902;12.836;2022-12-18T23:20:50;-4.10;99.90
37300;DHT22;23184;51.902;12.836;2022-12-18T23:23:16;-4.10;99.90
37300;DHT22;23184;51.902;12.836;2022-12-18T23:25:41;-4.10;99.90
37300;DHT22;23184;51.902;12.836;2022-12-18T23:28:07;-4.10;99.90
37300;DHT22;23184;51.902;12.836;2022-12-18T23:30:32;-4.10;99.90
37300;DHT22;23184;51.902;12.836;2022-12-18T23:32:59;-4.10;99.90
37300;DHT22;23184;51.902;12.836;2022-12-18T23:35:24;-4.10;99.90
37300;DHT22;23184;51.902;12.836;2022-12-18T23:37:50;-4.10;99.90
37300;DHT22;23184;51.902;12.836;2022-12-18T23:40:16;-4.10;99.90
37300;DHT22;23184;51.902;12.836;2022-12-18T23:42:41;-4.10;99.90
37300;DHT22;23184;51.902;12.836;2022-12-18T23:45:07;-4.10;99.90
37300;DHT22;23184;51.902;12.836;2022-12-18T23:47:33;-4.10;99.90
37300;DHT22;23184;51.902;12.836;2022-12-18T23:49:59;-4.10;99.90
37300;DHT22;23184;51.902;12.836;2022-12-18T23:52:24;-4.10;99.90